Time;durP1;ratioP1;P1;durP2;ratioP2;P2;SDS_P1;SDS_P2;PMS_P1;PMS_P2;Temp;Humidity;BMP_temperature;BMP_pressure;BME280_temperature;BME280_humidity;BME280_pressure;Samples;Min_cycle;Max_cycle;Signal;HPM_P1;HPM_P2
2021/12/09 00:00:12;;;;;;;29.52;10.73;;;2.00;99.90;;;;;;5009366;28;20057;-65
2021/12/09 00:02:38;;;;;;;34.15;11.73;;;1.90;99.90;;;;;;5010791;28;20032;-62
2021/12/09 00:05:05;;;;;;;28.73;11.50;;;1.90;99.90;;;;;;5021736;28;20033;-66
2021/12/09 00:07:30;;;;;;;32.72;11.48;;;1.90;99.90;;;;;;5010826;28;20156;-62
2021/12/09 00:09:56;;;;;;;36.13;11.75;;;1.90;99.90;;;;;;5010730;28;20112;-62
2021/12/09 00:12:23;;;;;;;32.35;12.32;;;1.90;99.90;;;;;;5009976;28;20026;-63
2021/12/09 00:14:49;;;;;;;29.30;11.25;;;1.80;99.90;;;;;;5009590;28;20061;-63
2021/12/09 00:17:15;;;;;;;28.33;11.40;;;1.90;99.90;;;;;;5009567;28;20450;-62
2021/12/09 00:19:41;;;;;;;32.92;11.77;;;1.90;99.90;;;;;;5015641;28;20033;-63
2021/12/09 00:22:09;;;;;;;28.70;10.93;;;1.80;99.90;;;;;;5010697;28;20029;-66
2021/12/09 00:24:35;;;;;;;31.27;11.15;;;1.80;99.90;;;;;;5008816;28;20041;-62
2021/12/09 00:27:01;;;;;;;28.98;11.20;;;1.80;99.90;;;;;;5010250;28;20128;-63
2021/12/09 00:29:27;;;;;;;28.48;11.13;;;1.80;99.90;;;;;;5010181;28;20077;-63
2021/12/09 00:31:53;;;;;;;25.48;10.05;;;1.80;99.90;;;;;;5008582;28;20041;-62
2021/12/09 00:34:27;;;;;;;27.98;11.05;;;1.80;99.90;;;;;;5010854;28;20034;-63
2021/12/09 00:37:04;;;;;;;27.65;10.15;;;1.80;99.90;;;;;;5009248;28;20091;-63
2021/12/09 00:39:30;;;;;;;29.58;10.32;;;1.80;99.90;;;;;;4996874;28;20034;-63
2021/12/09 00:41:55;;;;;;;28.75;10.85;;;1.80;99.90;;;;;;5010048;28;20092;-63
2021/12/09 00:44:21;;;;;;;28.58;10.45;;;1.80;99.90;;;;;;5009279;28;20034;-63
2021/12/09 00:46:48;;;;;;;27.90;10.98;;;1.70;99.90;;;;;;5010157;28;20036;-62
2021/12/09 00:49:13;;;;;;;30.83;10.43;;;1.80;99.90;;;;;;5020264;28;20033;-62
2021/12/09 00:51:39;;;;;;;31.42;11.05;;;1.80;99.90;;;;;;5023330;28;20048;-63
2021/12/09 00:54:05;;;;;;;32.17;11.40;;;1.70;99.90;;;;;;5010094;28;20028;-63
2021/12/09 00:56:31;;;;;;;27.50;10.30;;;1.70;99.90;;;;;;5008808;28;20037;-63
2021/12/09 00:58:57;;;;;;;29.13;10.38;;;1.70;99.90;;;;;;5010098;28;20049;-65
2021/12/09 01:01:24;;;;;;;28.88;11.02;;;1.60;99.90;;;;;;5009575;28;20044;-64
2021/12/09 01:03:50;;;;;;;30.13;10.57;;;1.60;99.90;;;;;;5021145;28;20355;-65
2021/12/09 01:06:16;;;;;;;31.98;10.85;;;1.50;99.90;;;;;;5008562;28;20025;-64
2021/12/09 01:08:43;;;;;;;29.48;11.38;;;1.50;99.90;;;;;;5009735;28;20056;-63
2021/12/09 01:11:11;;;;;;;29.77;10.02;;;1.50;99.90;;;;;;5009397;28;20113;-66
2021/12/09 01:13:37;;;;;;;36.10;12.00;;;1.50;99.90;;;;;;5009949;28;20028;-63
2021/12/09 01:16:03;;;;;;;29.63;11.35;;;1.50;99.90;;;;;;5010152;28;20084;-62
2021/12/09 01:18:29;;;;;;;29.48;10.75;;;1.50;99.90;;;;;;5021085;28;20134;-63
2021/12/09 01:20:55;;;;;;;28.85;10.80;;;1.50;99.90;;;;;;5009490;28;20664;-63
2021/12/09 01:23:21;;;;;;;30.40;10.27;;;1.50;99.90;;;;;;5007705;28;20056;-64
2021/12/09 01:25:49;;;;;;;27.98;10.50;;;1.50;99.90;;;;;;5009138;28;20057;-63
2021/12/09 01:28:23;;;;;;;29.52;11.30;;;1.50;99.90;;;;;;5008687;28;20061;-63
2021/12/09 01:30:50;;;;;;;31.98;11.55;;;1.50;99.90;;;;;;5009366;28;20105;-64
2021/12/09 01:33:17;;;;;;;34.03;11.70;;;1.40;99.90;;;;;;5016933;28;20041;-63
2021/12/09 01:35:47;;;;;;;35.53;12.25;;;1.50;99.90;;;;;;5008942;28;20450;-63
2021/12/09 01:38:15;;;;;;;29.90;10.35;;;1.50;99.90;;;;;;5008044;28;20030;-66
2021/12/09 01:40:42;;;;;;;29.38;10.65;;;1.40;99.90;;;;;;5009371;28;20037;-64
2021/12/09 01:43:08;;;;;;;25.52;10.00;;;1.40;99.90;;;;;;5009785;28;20030;-63
2021/12/09 01:45:33;;;;;;;27.95;10.15;;;1.40;99.90;;;;;;5008441;28;20038;-63
2021/12/09 01:48:00;;;;;;;27.35;10.05;;;1.50;99.90;;;;;;5018926;28;20088;-63
2021/12/09 01:50:26;;;;;;;26.42;9.90;;;1.40;99.90;;;;;;5007861;28;20037;-64
2021/12/09 01:52:52;;;;;;;28.42;10.35;;;1.50;99.90;;;;;;5009442;28;20112;-63
2021/12/09 01:55:19;;;;;;;26.85;9.85;;;1.50;99.90;;;;;;5008666;28;20563;-62
2021/12/09 01:57:50;;;;;;;25.88;9.25;;;1.50;99.90;;;;;;5009443;28;20038;-63
2021/12/09 02:00:19;;;;;;;24.13;8.88;;;1.50;99.90;;;;;;5007264;28;20140;-63
2021/12/09 02:02:45;;;;;;;23.23;8.53;;;1.40;99.90;;;;;;5020234;28;20137;-63
2021/12/09 02:05:12;;;;;;;21.00;7.38;;;1.40;99.90;;;;;;5008847;28;20386;-67
2021/12/09 02:07:39;;;;;;;26.17;8.90;;;1.40;99.90;;;;;;5008489;28;20062;-62
2021/12/09 02:10:07;;;;;;;354.65;25.63;;;1.40;99.90;;;;;;5009290;28;20033;-63
2021/12/09 02:12:33;;;;;;;140.40;15.00;;;1.40;99.90;;;;;;5008828;28;20041;-62
2021/12/09 02:15:00;;;;;;;143.52;15.65;;;1.30;99.90;;;;;;5008421;28;20060;-63
2021/12/09 02:17:28;;;;;;;25.30;9.40;;;1.30;99.90;;;;;;5015174;28;20548;-63
2021/12/09 02:19:57;;;;;;;26.80;9.52;;;1.20;99.90;;;;;;5008110;28;20040;-62
2021/12/09 02:22:22;;;;;;;23.45;9.15;;;1.30;99.90;;;;;;5008721;28;20057;-62
2021/12/09 02:24:48;;;;;;;24.00;8.65;;;1.20;99.90;;;;;;5009370;28;20041;-63
2021/12/09 02:27:14;;;;;;;21.77;7.57;;;1.20;99.90;;;;;;5021374;28;20117;-66
2021/12/09 02:29:41;;;;;;;16.23;6.15;;;1.30;99.90;;;;;;5008667;28;20105;-63
2021/12/09 02:32:07;;;;;;;15.77;6.55;;;1.20;99.90;;;;;;5008037;28;20056;-63
2021/12/09 02:34:34;;;;;;;17.52;6.35;;;1.30;99.90;;;;;;5007584;28;20085;-63
2021/12/09 02:37:00;;;;;;;16.70;6.20;;;1.30;99.90;;;;;;5009213;28;20030;-63
2021/12/09 02:39:25;;;;;;;16.70;6.22;;;1.30;99.90;;;;;;5007278;28;20030;-62
2021/12/09 02:41:51;;;;;;;15.82;6.10;;;1.30;99.90;;;;;;5024307;28;20471;-64
2021/12/09 02:44:20;;;;;;;19.65;6.72;;;1.30;99.90;;;;;;5012154;28;20072;-66
2021/12/09 02:46:48;;;;;;;16.77;6.43;;;1.30;99.90;;;;;;5005824;28;20091;-62
2021/12/09 02:49:17;;;;;;;19.30;7.32;;;1.40;99.90;;;;;;5021244;28;20049;-66
2021/12/09 02:51:45;;;;;;;18.42;7.00;;;1.40;99.90;;;;;;5013414;28;20053;-63
2021/12/09 02:54:12;;;;;;;20.83;7.30;;;1.40;99.90;;;;;;5011999;28;20480;-63
2021/12/09 02:56:39;;;;;;;18.85;7.18;;;1.40;99.90;;;;;;5007909;28;20022;-64
2021/12/09 02:59:05;;;;;;;19.63;7.40;;;1.40;99.90;;;;;;5017135;28;20037;-63
2021/12/09 03:01:34;;;;;;;20.10;7.30;;;1.30;99.90;;;;;;5011521;28;20034;-62
2021/12/09 03:04:04;;;;;;;21.85;7.82;;;1.40;99.90;;;;;;5030254;28;20030;-63
2021/12/09 03:06:36;;;;;;;22.33;7.63;;;1.40;99.90;;;;;;5017588;28;20474;-63
2021/12/09 03:09:11;;;;;;;23.05;7.65;;;1.40;99.90;;;;;;5011034;28;20046;-63
2021/12/09 03:11:37;;;;;;;18.13;6.78;;;1.40;99.90;;;;;;4992083;28;20105;-63
2021/12/09 03:14:04;;;;;;;22.08;7.88;;;1.40;99.90;;;;;;5011429;28;20033;-63
2021/12/09 03:16:30;;;;;;;21.70;8.10;;;1.40;99.90;;;;;;5011035;28;20502;-62
2021/12/09 03:19:04;;;;;;;23.90;8.52;;;1.40;99.90;;;;;;5010985;28;20057;-64
2021/12/09 03:21:37;;;;;;;23.20;7.85;;;1.40;99.90;;;;;;5015206;28;20034;-65
2021/12/09 03:24:05;;;;;;;22.85;8.35;;;1.40;99.90;;;;;;5012029;28;20025;-62
2021/12/09 03:26:34;;;;;;;23.15;7.85;;;1.40;99.90;;;;;;5017297;28;20049;-63
2021/12/09 03:29:04;;;;;;;24.65;8.88;;;1.40;99.90;;;;;;5024620;28;20129;-63
2021/12/09 03:31:30;;;;;;;21.50;8.20;;;1.40;99.90;;;;;;5015780;28;20496;-62
2021/12/09 03:33:56;;;;;;;21.83;7.30;;;1.40;99.90;;;;;;5014282;28;20033;-64
2021/12/09 03:36:26;;;;;;;23.50;8.25;;;1.40;99.90;;;;;;5011364;28;20159;-63
2021/12/09 03:38:52;;;;;;;24.38;8.65;;;1.40;99.90;;;;;;5011342;28;20030;-64
2021/12/09 03:41:18;;;;;;;26.77;9.00;;;1.40;99.90;;;;;;5009434;28;20034;-66
2021/12/09 03:43:43;;;;;;;26.23;9.00;;;1.40;99.90;;;;;;5022898;28;20037;-62
2021/12/09 03:46:09;;;;;;;24.23;8.85;;;1.50;99.90;;;;;;5012108;28;20096;-63
2021/12/09 03:48:35;;;;;;;23.35;8.73;;;1.40;99.90;;;;;;5016362;28;20052;-63
2021/12/09 03:51:01;;;;;;;24.00;9.02;;;1.40;99.90;;;;;;5011689;28;20176;-63
2021/12/09 03:53:26;;;;;;;25.50;9.70;;;1.40;99.90;;;;;;5019903;28;20064;-63
2021/12/09 03:55:52;;;;;;;25.42;8.85;;;1.40;99.90;;;;;;5017684;28;20429;-63
2021/12/09 03:58:19;;;;;;;23.50;9.23;;;1.50;99.90;;;;;;5010187;28;20421;-65
2021/12/09 04:00:45;;;;;;;27.52;9.25;;;1.50;99.90;;;;;;5008740;28;20034;-63
2021/12/09 04:03:11;;;;;;;26.95;8.75;;;1.50;99.90;;;;;;5011252;28;20033;-63
2021/12/09 04:05:38;;;;;;;25.27;8.82;;;1.40;99.90;;;;;;5013809;28;20175;-62
2021/12/09 04:08:04;;;;;;;22.35;8.35;;;1.50;99.90;;;;;;5010162;28;20363;-62
2021/12/09 04:10:31;;;;;;;24.65;8.98;;;1.50;99.90;;;;;;5007470;28;20030;-62
2021/12/09 04:12:58;;;;;;;27.30;9.90;;;1.40;99.90;;;;;;5006735;28;20022;-63
2021/12/09 04:15:24;;;;;;;29.77;9.27;;;1.50;99.90;;;;;;5008290;28;20036;-62
2021/12/09 04:17:49;;;;;;;29.40;9.20;;;1.40;99.90;;;;;;5010157;28;20128;-62
2021/12/09 04:20:15;;;;;;;29.08;9.73;;;1.40;99.90;;;;;;5009487;28;20030;-62
2021/12/09 04:22:48;;;;;;;26.67;9.35;;;1.40;99.90;;;;;;5006742;28;20278;-63
2021/12/09 04:25:21;;;;;;;30.38;9.57;;;1.40;99.90;;;;;;5007779;28;20704;-63
2021/12/09 04:27:50;;;;;;;30.23;10.20;;;1.40;99.90;;;;;;5006465;28;20065;-64
2021/12/09 04:30:16;;;;;;;27.83;10.25;;;1.40;99.90;;;;;;5009070;28;20022;-62
2021/12/09 04:32:42;;;;;;;34.55;10.10;;;1.30;99.90;;;;;;5004970;28;20474;-63
2021/12/09 04:35:10;;;;;;;30.20;10.40;;;1.40;99.90;;;;;;5009980;28;20537;-62
2021/12/09 04:37:36;;;;;;;30.50;10.10;;;1.40;99.90;;;;;;5001354;28;20029;-63
2021/12/09 04:40:04;;;;;;;25.67;9.02;;;1.40;99.90;;;;;;5009662;28;20387;-62
2021/12/09 04:42:30;;;;;;;28.52;9.48;;;1.40;99.90;;;;;;5007747;28;20080;-62
2021/12/09 04:44:56;;;;;;;31.48;9.95;;;1.40;99.90;;;;;;5009276;28;20457;-63
2021/12/09 04:47:22;;;;;;;33.53;10.18;;;1.40;99.90;;;;;;5008609;28;20048;-65
2021/12/09 04:49:47;;;;;;;34.28;9.93;;;1.40;99.90;;;;;;5009953;28;20033;-62
2021/12/09 04:52:14;;;;;;;34.75;11.82;;;1.40;99.90;;;;;;5010094;28;20356;-62
2021/12/09 04:54:42;;;;;;;34.70;10.55;;;1.40;99.90;;;;;;4984661;28;20053;-65
2021/12/09 04:57:09;;;;;;;29.98;10.63;;;1.40;99.90;;;;;;5005953;28;20022;-63
2021/12/09 04:59:36;;;;;;;34.30;11.25;;;1.40;99.90;;;;;;5015524;28;20113;-63
2021/12/09 05:02:02;;;;;;;38.08;11.35;;;1.40;99.90;;;;;;5011557;28;20037;-63
2021/12/09 05:04:28;;;;;;;125.28;16.48;;;1.30;99.90;;;;;;5014061;28;20045;-63
2021/12/09 05:06:54;;;;;;;116.93;15.90;;;1.40;99.90;;;;;;5009318;28;20040;-64
2021/12/09 05:09:20;;;;;;;74.85;12.23;;;1.40;99.90;;;;;;5011964;28;20046;-63
2021/12/09 05:14:13;;;;;;;59.10;12.30;;;1.30;99.90;;;;;;5009467;28;20030;-63
2021/12/09 05:16:39;;;;;;;52.03;12.63;;;1.30;99.90;;;;;;5012880;28;20814;-63
2021/12/09 05:19:05;;;;;;;41.40;12.13;;;1.30;99.90;;;;;;5015340;28;20393;-63
2021/12/09 05:21:37;;;;;;;46.33;12.63;;;1.40;99.90;;;;;;5016390;28;20029;-62
2021/12/09 05:24:07;;;;;;;57.35;13.73;;;1.40;99.90;;;;;;5019416;28;20528;-65
2021/12/09 05:26:41;;;;;;;38.75;11.05;;;1.40;99.90;;;;;;5007151;28;20505;-65
2021/12/09 05:29:08;;;;;;;45.45;12.85;;;1.40;99.90;;;;;;5018728;28;20483;-65
2021/12/09 05:34:20;;;;;;;37.00;11.75;;;1.50;99.90;;;;;;5018956;28;20084;-63
2021/12/09 05:36:46;;;;;;;33.20;11.30;;;1.40;99.90;;;;;;5005362;28;20022;-64
2021/12/09 05:39:13;;;;;;;37.25;12.40;;;1.50;99.90;;;;;;5009365;28;20042;-63
2021/12/09 05:41:40;;;;;;;35.40;12.20;;;1.50;99.90;;;;;;5007002;28;20548;-65
2021/12/09 05:44:07;;;;;;;33.78;11.20;;;1.50;99.90;;;;;;5008687;28;20116;-64
2021/12/09 05:46:36;;;;;;;36.30;11.23;;;1.50;99.90;;;;;;5006971;28;20038;-64
2021/12/09 05:49:02;;;;;;;31.27;10.52;;;1.50;99.90;;;;;;5008592;28;20446;-63
2021/12/09 05:51:28;;;;;;;41.15;11.80;;;1.50;99.90;;;;;;5008384;28;20030;-68
2021/12/09 05:53:56;;;;;;;35.05;11.77;;;1.50;99.90;;;;;;5002658;28;20537;-63
2021/12/09 05:56:22;;;;;;;39.75;12.07;;;1.60;99.90;;;;;;5008679;28;20026;-63
2021/12/09 05:58:48;;;;;;;33.88;11.15;;;1.60;99.90;;;;;;5009699;28;20113;-64
2021/12/09 06:01:14;;;;;;;41.38;11.57;;;1.60;99.90;;;;;;5005706;28;20140;-64
2021/12/09 06:03:41;;;;;;;42.60;11.65;;;1.60;99.90;;;;;;5005276;28;20116;-63
2021/12/09 06:06:07;;;;;;;47.75;13.43;;;1.70;99.90;;;;;;5009676;28;20068;-64
2021/12/09 06:08:36;;;;;;;39.67;12.05;;;1.60;99.90;;;;;;5006024;28;20489;-62
2021/12/09 06:11:03;;;;;;;39.20;13.15;;;1.60;99.90;;;;;;5006620;28;20026;-63
2021/12/09 06:13:31;;;;;;;42.00;13.55;;;1.60;99.90;;;;;;5008277;28;20073;-67
2021/12/09 06:15:57;;;;;;;39.88;13.35;;;1.60;99.90;;;;;;5006487;28;20037;-63
2021/12/09 06:18:23;;;;;;;38.17;12.38;;;1.60;99.90;;;;;;5000012;28;20069;-63
2021/12/09 06:20:49;;;;;;;38.38;12.35;;;1.60;99.90;;;;;;5008293;28;20052;-64
2021/12/09 06:23:15;;;;;;;32.38;10.98;;;1.70;99.90;;;;;;5012219;28;20076;-64
2021/12/09 06:25:41;;;;;;;36.15;12.23;;;1.70;99.90;;;;;;5009454;28;20037;-63
2021/12/09 06:28:07;;;;;;;41.00;13.23;;;1.70;99.90;;;;;;5018863;28;20489;-63
2021/12/09 06:30:33;;;;;;;35.83;12.30;;;1.70;99.90;;;;;;5012585;28;20048;-64
2021/12/09 06:32:58;;;;;;;36.78;12.80;;;1.70;99.90;;;;;;5010054;28;20099;-63
2021/12/09 06:35:27;;;;;;;41.28;12.88;;;1.70;99.90;;;;;;5009863;28;20416;-65
2021/12/09 06:37:53;;;;;;;36.70;11.80;;;1.70;99.90;;;;;;5014807;28;20026;-63
2021/12/09 06:40:20;;;;;;;43.78;13.63;;;1.70;99.90;;;;;;5015715;28;20066;-63
2021/12/09 06:42:47;;;;;;;36.90;12.93;;;1.80;99.90;;;;;;5014899;28;20030;-63
2021/12/09 06:45:14;;;;;;;38.28;13.00;;;1.80;99.90;;;;;;5016268;28;20037;-62
2021/12/09 06:47:40;;;;;;;36.25;12.57;;;1.90;99.90;;;;;;5011484;28;20034;-64
2021/12/09 06:50:08;;;;;;;37.45;12.50;;;1.90;99.90;;;;;;5013635;28;20410;-65
2021/12/09 06:52:34;;;;;;;41.15;13.82;;;1.80;99.90;;;;;;5013345;28;20112;-66
2021/12/09 06:55:00;;;;;;;33.03;12.70;;;1.80;99.90;;;;;;5018103;28;20422;-63
2021/12/09 06:57:27;;;;;;;41.30;13.32;;;1.90;99.90;;;;;;5011845;28;20108;-65
2021/12/09 06:59:52;;;;;;;38.83;13.20;;;1.90;99.90;;;;;;5010198;28;20030;-65
2021/12/09 07:02:18;;;;;;;34.92;13.05;;;1.90;99.90;;;;;;5013855;28;20364;-66
2021/12/09 07:04:44;;;;;;;40.08;13.65;;;1.90;99.90;;;;;;5010717;28;20037;-65
2021/12/09 07:07:10;;;;;;;40.42;13.93;;;1.90;99.90;;;;;;5015584;28;20029;-64
2021/12/09 07:09:37;;;;;;;47.55;14.88;;;1.90;99.90;;;;;;5015039;28;20601;-65
2021/12/09 07:12:04;;;;;;;42.58;13.75;;;2.00;99.90;;;;;;5008033;28;20037;-63
2021/12/09 07:14:29;;;;;;;39.80;14.38;;;1.90;99.90;;;;;;5004911;28;20085;-68
2021/12/09 07:16:55;;;;;;;41.63;15.30;;;1.90;99.90;;;;;;5012082;28;20034;-63
2021/12/09 07:19:21;;;;;;;42.35;14.75;;;2.00;99.90;;;;;;5014083;28;20030;-65
2021/12/09 07:21:47;;;;;;;43.67;14.60;;;2.00;99.90;;;;;;5010676;28;20030;-64
2021/12/09 07:24:13;;;;;;;45.15;14.27;;;1.90;99.90;;;;;;5010372;28;20045;-63
2021/12/09 07:26:38;;;;;;;46.05;15.80;;;2.00;99.90;;;;;;5022137;28;20054;-63
2021/12/09 07:29:05;;;;;;;40.53;14.70;;;2.00;99.90;;;;;;5014646;28;20037;-64
2021/12/09 07:31:31;;;;;;;38.53;14.73;;;1.90;99.90;;;;;;5010952;28;20042;-66
2021/12/09 07:33:57;;;;;;;45.67;13.73;;;2.00;99.90;;;;;;5017064;28;20029;-63
2021/12/09 07:36:24;;;;;;;52.55;14.43;;;2.00;99.90;;;;;;5010935;28;20463;-63
2021/12/09 07:38:50;;;;;;;49.38;13.60;;;2.10;99.90;;;;;;5009122;28;20351;-62
2021/12/09 07:41:16;;;;;;;43.75;13.65;;;2.10;99.90;;;;;;5015962;28;20564;-63
2021/12/09 07:43:43;;;;;;;46.45;15.38;;;2.10;99.90;;;;;;5014138;28;20087;-65
2021/12/09 07:46:09;;;;;;;38.30;13.25;;;2.00;99.90;;;;;;5017363;28;20030;-63
2021/12/09 07:48:35;;;;;;;32.75;12.65;;;2.10;99.90;;;;;;5009344;28;20044;-67
2021/12/09 07:51:01;;;;;;;38.85;13.07;;;2.10;99.90;;;;;;5015449;28;20033;-64
2021/12/09 07:53:27;;;;;;;33.25;13.35;;;2.10;99.90;;;;;;5016111;28;20022;-63
2021/12/09 07:55:54;;;;;;;40.35;13.35;;;2.20;99.90;;;;;;5010797;28;20605;-63
2021/12/09 07:58:21;;;;;;;37.63;13.60;;;2.10;99.90;;;;;;5015029;28;20120;-63
2021/12/09 08:00:48;;;;;;;34.70;12.95;;;2.10;99.90;;;;;;5010195;28;20111;-63
2021/12/09 08:03:15;;;;;;;39.58;13.93;;;2.20;99.90;;;;;;5020748;28;20041;-63
2021/12/09 08:05:44;;;;;;;34.10;12.77;;;2.20;99.90;;;;;;5014791;28;20072;-63
2021/12/09 08:08:11;;;;;;;38.97;12.93;;;2.20;99.90;;;;;;5011105;28;20034;-62
2021/12/09 08:10:37;;;;;;;34.25;13.00;;;2.30;99.90;;;;;;5011086;28;20034;-63
2021/12/09 08:13:03;;;;;;;34.40;13.13;;;2.30;99.90;;;;;;5019788;28;20025;-63
2021/12/09 08:15:34;;;;;;;35.22;11.98;;;2.30;99.90;;;;;;5019618;28;20038;-63
2021/12/09 08:18:15;;;;;;;;;;;2.20;99.90;;;;;;5012356;28;20121;-63
2021/12/09 08:20:40;;;;;;;41.05;11.55;;;2.30;99.90;;;;;;5027819;28;20357;-63
2021/12/09 08:23:06;;;;;;;38.15;12.73;;;2.30;99.90;;;;;;5011447;28;20096;-64
2021/12/09 08:25:32;;;;;;;39.47;12.63;;;2.30;99.90;;;;;;5021871;28;20029;-65
2021/12/09 08:27:58;;;;;;;35.30;12.27;;;2.30;99.90;;;;;;5019470;28;20448;-63
2021/12/09 08:30:25;;;;;;;36.03;13.00;;;2.30;99.90;;;;;;5012873;28;20030;-67
2021/12/09 08:32:53;;;;;;;32.30;12.80;;;2.30;99.90;;;;;;4995472;28;20022;-66
2021/12/09 08:35:19;;;;;;;31.65;12.52;;;2.40;99.90;;;;;;5012445;28;20058;-64
2021/12/09 08:37:46;;;;;;;31.73;12.50;;;2.40;99.90;;;;;;5010652;28;20033;-65
2021/12/09 08:40:13;;;;;;;36.55;12.75;;;2.40;99.90;;;;;;5019617;28;20064;-65
2021/12/09 08:42:40;;;;;;;40.50;11.48;;;2.40;99.90;;;;;;5018846;28;20104;-64
2021/12/09 08:45:09;;;;;;;28.45;11.15;;;2.40;99.90;;;;;;5023951;28;20463;-66
2021/12/09 08:47:37;;;;;;;32.92;12.57;;;2.40;99.90;;;;;;5020180;28;20044;-68
2021/12/09 08:50:05;;;;;;;36.65;12.02;;;2.50;99.90;;;;;;5016573;28;20112;-66
2021/12/09 08:52:31;;;;;;;32.65;11.35;;;2.50;99.90;;;;;;5020845;28;20034;-66
2021/12/09 08:54:56;;;;;;;31.30;11.60;;;2.50;99.90;;;;;;5016241;28;20033;-67
2021/12/09 08:57:23;;;;;;;24.50;10.38;;;2.60;99.90;;;;;;5013144;28;20029;-64
2021/12/09 08:59:49;;;;;;;25.80;10.10;;;2.70;99.90;;;;;;5015214;28;20028;-66
2021/12/09 09:02:17;;;;;;;28.30;10.75;;;2.60;99.90;;;;;;5015676;28;20036;-64
2021/12/09 09:04:45;;;;;;;27.40;10.65;;;2.70;99.90;;;;;;5008534;28;20329;-64
2021/12/09 09:07:11;;;;;;;27.52;10.50;;;2.70;99.90;;;;;;5009350;28;20736;-64
2021/12/09 09:09:38;;;;;;;25.58;10.30;;;2.70;99.90;;;;;;5028392;28;20057;-67
2021/12/09 09:12:07;;;;;;;28.77;10.82;;;2.70;99.90;;;;;;5019500;28;20095;-65
2021/12/09 09:14:33;;;;;;;30.92;9.95;;;2.70;99.90;;;;;;5013185;28;20084;-64
2021/12/09 09:16:59;;;;;;;29.02;10.80;;;2.70;99.90;;;;;;5017830;28;20056;-65
2021/12/09 09:19:25;;;;;;;28.05;10.43;;;2.80;99.90;;;;;;5026077;28;20061;-65
2021/12/09 09:21:51;;;;;;;30.63;9.98;;;2.80;99.90;;;;;;5016131;28;20029;-66
2021/12/09 09:24:18;;;;;;;29.05;9.98;;;2.80;99.90;;;;;;5011535;28;20036;-64
2021/12/09 09:26:44;;;;;;;24.63;9.98;;;2.80;99.90;;;;;;5013595;28;20107;-66
2021/12/09 09:29:10;;;;;;;28.63;11.32;;;2.80;99.90;;;;;;5015412;28;20863;-67
2021/12/09 09:31:39;;;;;;;28.25;10.73;;;2.80;99.90;;;;;;5009911;28;20030;-69
2021/12/09 09:34:05;;;;;;;26.35;9.98;;;2.80;99.90;;;;;;5009912;28;20029;-66
2021/12/09 09:36:31;;;;;;;29.17;10.75;;;2.80;99.90;;;;;;5015172;28;20034;-68
2021/12/09 09:39:06;;;;;;;22.15;9.95;;;2.80;99.90;;;;;;5009304;28;20037;-65
2021/12/09 09:41:35;;;;;;;26.25;10.13;;;2.90;99.90;;;;;;5010634;28;20116;-64
2021/12/09 09:44:12;;;;;;;23.85;10.68;;;2.90;99.90;;;;;;5015119;28;20409;-65
2021/12/09 09:46:39;;;;;;;26.90;9.95;;;3.00;99.90;;;;;;4996538;28;20044;-67
2021/12/09 09:49:06;;;;;;;27.08;10.80;;;2.90;99.90;;;;;;5010762;28;20049;-66
2021/12/09 09:51:34;;;;;;;26.92;11.55;;;2.90;99.90;;;;;;5014590;28;20034;-64
2021/12/09 09:54:01;;;;;;;27.42;9.32;;;3.00;99.90;;;;;;5008676;28;20044;-64
2021/12/09 09:56:27;;;;;;;24.17;8.90;;;3.00;99.90;;;;;;5012341;28;20100;-64
2021/12/09 09:58:59;;;;;;;24.75;9.57;;;3.00;99.90;;;;;;5015624;28;20037;-65
2021/12/09 10:01:28;;;;;;;26.60;10.27;;;2.90;99.90;;;;;;5021056;28;20052;-65
2021/12/09 10:04:09;;;;;;;30.55;9.48;;;3.00;99.90;;;;;;5012621;28;20596;-66
2021/12/09 10:06:36;;;;;;;27.13;9.82;;;3.00;99.90;;;;;;5021677;28;20030;-64
2021/12/09 10:09:04;;;;;;;32.25;11.13;;;3.00;99.90;;;;;;5025105;28;20033;-65
2021/12/09 10:11:30;;;;;;;36.28;12.02;;;3.00;99.90;;;;;;5018905;28;20056;-64
2021/12/09 10:14:12;;;;;;;31.40;12.45;;;3.00;99.90;;;;;;5015742;28;20061;-65
2021/12/09 10:16:38;;;;;;;35.97;12.98;;;2.90;99.90;;;;;;4999286;28;20109;-64
2021/12/09 10:19:15;;;;;;;33.28;12.13;;;2.90;99.90;;;;;;5025133;28;20044;-65
2021/12/09 10:21:42;;;;;;;38.53;13.25;;;2.90;99.90;;;;;;5018043;28;20121;-67
2021/12/09 10:24:08;;;;;;;30.67;12.02;;;2.90;99.90;;;;;;5021151;28;20022;-65
2021/12/09 10:26:43;;;;;;;35.10;13.52;;;2.90;99.90;;;;;;5018770;28;20050;-64
2021/12/09 10:29:28;;;;;;;33.05;11.13;;;2.90;99.90;;;;;;5019092;28;20190;-65
2021/12/09 10:32:01;;;;;;;31.15;12.48;;;2.90;99.90;;;;;;5000797;28;20030;-65
2021/12/09 10:34:36;;;;;;;28.00;11.65;;;3.00;99.90;;;;;;5013627;28;20072;-63
2021/12/09 10:37:20;;;;;;;29.23;10.65;;;3.00;99.90;;;;;;5010478;28;20093;-66
2021/12/09 10:39:50;;;;;;;35.85;11.15;;;3.00;99.90;;;;;;5010868;28;20026;-67
2021/12/09 10:42:22;;;;;;;25.85;11.00;;;3.00;99.90;;;;;;5013026;28;20407;-67
2021/12/09 10:44:52;;;;;;;29.25;11.43;;;3.10;99.90;;;;;;5010244;28;20467;-67
2021/12/09 10:50:25;;;;;;;30.08;10.73;;;3.10;99.90;;;;;;5011836;28;20549;-68
2021/12/09 10:53:03;;;;;;;27.63;11.32;;;3.20;99.90;;;;;;5009248;28;20033;-69
2021/12/09 10:55:36;;;;;;;28.17;10.90;;;3.20;99.90;;;;;;5010270;28;20413;-68
2021/12/09 10:58:08;;;;;;;27.45;10.43;;;3.20;99.90;;;;;;5015761;28;20707;-68
2021/12/09 11:00:45;;;;;;;30.65;11.07;;;3.10;99.90;;;;;;5011583;28;20030;-70
2021/12/09 11:03:35;;;;;;;28.88;10.88;;;3.10;99.90;;;;;;5008963;28;20030;-68
2021/12/09 11:06:07;;;;;;;33.80;11.80;;;3.10;99.90;;;;;;5011252;28;20485;-68
2021/12/09 11:08:41;;;;;;;30.13;11.02;;;3.10;99.90;;;;;;5011951;28;20045;-68
2021/12/09 11:11:14;;;;;;;24.95;10.75;;;3.10;99.90;;;;;;5010861;28;20045;-67
2021/12/09 11:13:48;;;;;;;35.28;10.68;;;3.10;99.90;;;;;;5008816;28;20101;-68
2021/12/09 11:16:26;;;;;;;28.85;9.88;;;3.10;99.90;;;;;;5018262;28;20036;-68
2021/12/09 11:18:57;;;;;;;25.58;9.98;;;3.20;99.90;;;;;;5027543;28;20030;-68
2021/12/09 11:21:29;;;;;;;26.58;9.75;;;3.20;99.90;;;;;;5023767;28;20060;-68
2021/12/09 11:24:10;;;;;;;22.63;9.18;;;3.30;99.90;;;;;;5012913;28;20808;-68
2021/12/09 11:26:57;;;;;;;;;;;3.30;99.90;;;;;;5011608;28;20050;-68
2021/12/09 11:29:35;;;;;;;21.42;8.93;;;3.30;99.90;;;;;;5025821;28;21705;-68
2021/12/09 11:34:47;;;;;;;23.92;8.82;;;3.40;99.90;;;;;;5012677;28;20444;-67
2021/12/09 11:39:58;;;;;;;33.75;10.02;;;3.40;99.90;;;;;;5008447;28;20037;-68
2021/12/09 11:42:43;;;;;;;23.48;8.07;;;3.50;99.90;;;;;;5024156;28;20038;-67
2021/12/09 11:45:12;;;;;;;23.10;9.30;;;3.50;99.90;;;;;;5013267;28;20029;-66
2021/12/09 11:47:43;;;;;;;25.55;9.13;;;3.50;99.90;;;;;;5015317;28;20116;-66
2021/12/09 11:50:13;;;;;;;;;;;3.50;99.90;;;;;;5021029;28;20073;-67
2021/12/09 11:52:42;;;;;;;24.80;8.50;;;3.60;99.90;;;;;;5014904;28;19913;-68
2021/12/09 11:55:11;;;;;;;23.52;8.05;;;3.60;99.90;;;;;;5019998;28;20091;-67
2021/12/09 12:12:34;;;;;;;22.17;9.10;;;3.50;99.90;;;;;;5002960;28;20033;-67
2021/12/09 12:15:25;;;;;;;29.20;9.65;;;3.50;99.90;;;;;;5018067;28;20038;-64
2021/12/09 12:21:05;;;;;;;21.52;8.35;;;3.60;99.90;;;;;;4999116;28;20030;-69
2021/12/09 12:42:16;;;;;;;22.77;8.45;;;3.70;99.90;;;;;;5008168;28;20092;-66
2021/12/09 12:47:54;;;;;;;21.02;8.50;;;3.70;99.90;;;;;;4992918;28;20050;-65
2021/12/09 12:50:22;;;;;;;22.08;8.68;;;3.80;99.90;;;;;;5010675;28;20034;-64
2021/12/09 12:52:49;;;;;;;19.80;8.07;;;3.70;99.90;;;;;;5009210;28;20474;-67
2021/12/09 12:55:26;;;;;;;22.67;9.35;;;3.70;99.90;;;;;;5014337;28;20492;-67
2021/12/09 12:57:54;;;;;;;24.63;8.60;;;3.70;99.90;;;;;;5013460;28;20041;-69
2021/12/09 13:00:30;;;;;;;20.33;7.97;;;3.70;99.90;;;;;;5009606;28;20113;-66
2021/12/09 13:16:19;;;;;;;26.30;9.65;;;3.80;99.90;;;;;;5010004;28;20041;-67
2021/12/09 13:21:41;;;;;;;25.95;9.95;;;3.90;99.90;;;;;;5007280;28;20044;-66
2021/12/09 13:24:24;;;;;;;20.38;8.02;;;3.80;99.90;;;;;;5004213;28;20517;-68
2021/12/09 13:27:26;;;;;;;26.55;9.20;;;3.80;99.90;;;;;;5014073;28;20038;-67
2021/12/09 13:49:40;;;;;;;27.05;9.07;;;3.80;99.90;;;;;;5002475;28;20130;-67
2021/12/09 13:54:08;;;;;;;28.52;9.52;;;3.80;99.90;;;;;;4989285;28;20031;-67
2021/12/09 13:54:57;;;;;;;26.02;8.90;;;3.80;99.90;;;;;;5024240;28;20800;-69
2021/12/09 13:57:34;;;;;;;31.58;10.00;;;3.80;99.90;;;;;;5024512;28;20038;-67
2021/12/09 14:00:04;;;;;;;28.10;10.15;;;3.80;99.90;;;;;;5011010;28;20033;-67
2021/12/09 14:02:30;;;;;;;20.85;9.35;;;3.80;99.90;;;;;;5016632;28;20473;-65
2021/12/09 14:04:58;;;;;;;31.13;10.25;;;3.70;99.90;;;;;;5022180;28;20508;-69
2021/12/09 14:07:36;;;;;;;30.33;10.43;;;3.70;99.90;;;;;;5011703;28;20042;-67
2021/12/09 14:10:12;;;;;;;25.27;9.52;;;3.70;99.90;;;;;;5009978;28;20026;-68
2021/12/09 14:12:47;;;;;;;27.33;10.73;;;3.60;99.90;;;;;;5003131;28;20026;-63
2021/12/09 14:15:20;;;;;;;32.00;10.10;;;3.50;99.90;;;;;;5020901;28;20088;-64